Time,TemperatureF,DewpointF,PressureIn,WindDirection,WindDirectionDegrees,WindSpeedMPH,WindSpeedGustMPH,Humidity,HourlyPrecipIn,Conditions,Clouds,dailyrainin,SoftwareType,DateUTC
2013-07-12 00:02:00,56.0,-99.9,30.04,WSW,252,12.0,17.0,-999,-99.99,,,-99.99,,2013-07-12 07:02:00,
2013-07-12 00:12:00,56.0,-99.9,30.04,West,262,10.0,18.0,-999,-99.99,,,-99.99,,2013-07-12 07:12:00,
2013-07-12 00:33:00,56.0,-99.9,30.04,WSW,257,10.0,14.0,-999,-99.99,,,-99.99,,2013-07-12 07:33:00,
2013-07-12 00:43:00,56.0,-99.9,30.04,WSW,251,7.0,15.0,-999,-99.99,,,-99.99,,2013-07-12 07:43:00,
2013-07-12 00:52:00,56.0,-99.9,30.04,WSW,256,9.0,13.0,-999,-99.99,,,-99.99,,2013-07-12 07:52:00,
2013-07-12 01:02:00,56.0,-99.9,30.04,WSW,255,8.0,13.0,-999,-99.99,,,-99.99,,2013-07-12 08:02:00,
2013-07-12 01:11:00,56.0,-99.9,30.04,West,260,8.0,16.0,-999,-99.99,,,-99.99,,2013-07-12 08:11:00,
2013-07-12 01:32:00,56.0,-99.9,30.04,West,268,9.0,18.0,-999,-99.99,,,-99.99,,2013-07-12 08:32:00,
2013-07-12 01:42:00,55.0,-99.9,30.04,West,268,9.0,13.0,-999,-99.99,,,-99.99,,2013-07-12 08:42:00,
2013-07-12 01:53:00,55.0,-99.9,30.04,West,272,10.0,15.0,-999,-99.99,,,-99.99,,2013-07-12 08:53:00,
2013-07-12 02:02:00,55.0,-99.9,30.04,West,267,11.0,15.0,-999,-99.99,,,-99.99,,2013-07-12 09:02:00,
2013-07-12 02:13:00,55.0,-99.9,30.04,West,274,10.0,13.0,-999,-99.99,,,-99.99,,2013-07-12 09:13:00,
2013-07-12 02:22:00,55.0,-99.9,30.04,West,269,11.0,16.0,-999,-99.99,,,-99.99,,2013-07-12 09:22:00,
2013-07-12 02:32:00,55.0,-99.9,30.03,West,272,10.0,15.0,-999,-99.99,,,-99.99,,2013-07-12 09:32:00,
2013-07-12 02:43:00,55.0,-99.9,30.04,West,266,9.0,15.0,-999,-99.99,,,-99.99,,2013-07-12 09:43:00,
2013-07-12 02:52:00,55.0,-99.9,30.04,West,281,11.0,19.0,-999,-99.99,,,-99.99,,2013-07-12 09:52:00,
2013-07-12 03:01:00,55.0,-99.9,30.04,West,267,10.0,18.0,-999,-99.99,,,-99.99,,2013-07-12 10:01:00,
2013-07-12 03:11:00,55.0,-99.9,30.04,West,267,10.0,18.0,-999,-99.99,,,-99.99,,2013-07-12 10:11:00,
2013-07-12 03:33:00,55.0,-99.9,30.03,West,265,11.0,17.0,-999,-99.99,,,-99.99,,2013-07-12 10:33:00,
2013-07-12 03:43:00,54.0,-99.9,30.03,WSW,252,13.0,19.0,-999,-99.99,,,-99.99,,2013-07-12 10:43:00,
2013-07-12 03:52:00,54.0,-99.9,30.03,WSW,252,13.0,19.0,-999,-99.99,,,-99.99,,2013-07-12 10:52:00,
2013-07-12 04:02:00,54.0,-99.9,30.04,WSW,247,12.0,20.0,-999,-99.99,,,-99.99,,2013-07-12 11:02:00,
2013-07-12 04:12:00,54.0,-99.9,30.04,WSW,252,11.0,17.0,-999,-99.99,,,-99.99,,2013-07-12 11:12:00,
2013-07-12 04:32:00,54.0,-99.9,30.04,WSW,246,10.0,15.0,-999,-99.99,,,-99.99,,2013-07-12 11:32:00,
2013-07-12 04:43:00,54.0,-99.9,30.04,WSW,244,9.0,12.0,-999,-99.99,,,-99.99,,2013-07-12 11:43:00,
2013-07-12 04:53:00,54.0,-99.9,30.04,WSW,249,7.0,12.0,-999,-99.99,,,-99.99,,2013-07-12 11:53:00,
2013-07-12 05:02:00,54.0,-99.9,30.04,WSW,249,8.0,12.0,-999,-99.99,,,-99.99,,2013-07-12 12:02:00,
2013-07-12 05:11:00,54.0,-99.9,30.04,WSW,252,8.0,12.0,-999,-99.99,,,-99.99,,2013-07-12 12:11:00,
2013-07-12 05:32:00,54.0,-99.9,30.04,West,260,11.0,15.0,-999,-99.99,,,-99.99,,2013-07-12 12:32:00,
2013-07-12 05:43:00,54.0,-99.9,30.04,WSW,258,8.0,14.0,-999,-99.99,,,-99.99,,2013-07-12 12:43:00,
2013-07-12 05:53:00,54.0,-99.9,30.04,West,267,7.0,11.0,-999,-99.99,,,-99.99,,2013-07-12 12:53:00,
2013-07-12 06:01:00,54.0,-99.9,30.04,West,260,6.0,10.0,-999,-99.99,,,-99.99,,2013-07-12 13:01:00,
2013-07-12 06:12:00,54.0,-99.9,30.04,West,278,6.0,10.0,-999,-99.99,,,-99.99,,2013-07-12 13:12:00,
2013-07-12 06:32:00,54.0,-99.9,30.04,West,280,5.0,11.0,-999,-99.99,,,-99.99,,2013-07-12 13:32:00,
2013-07-12 06:43:00,54.0,-99.9,30.04,West,261,5.0,10.0,-999,-99.99,,,-99.99,,2013-07-12 13:43:00,
2013-07-12 07:32:00,55.0,-99.9,30.05,SW,229,7.0,10.0,-999,-99.99,,,-99.99,,2013-07-12 14:32:00,
2013-07-12 07:44:00,54.0,-99.9,30.05,South,181,6.0,8.0,-999,-99.99,,,-99.99,,2013-07-12 14:44:00,
2013-07-12 08:02:00,55.0,-99.9,30.05,SSW,203,3.0,7.0,-999,-99.99,,,-99.99,,2013-07-12 15:02:00,
2013-07-12 08:11:00,54.0,-99.9,30.05,South,180,5.0,8.0,-999,-99.99,,,-99.99,,2013-07-12 15:11:00,
2013-07-12 09:02:00,54.0,-99.9,30.05,SSE,163,2.0,2.0,-999,-99.99,,,-99.99,,2013-07-12 16:02:00,
2013-07-12 09:11:00,55.0,-99.9,30.05,ESE,121,0.0,2.0,-999,-99.99,,,-99.99,,2013-07-12 16:11:00,
2013-07-12 09:22:00,56.0,-99.9,30.05,NE,39,4.0,4.0,-999,-99.99,,,-99.99,,2013-07-12 16:22:00,
2013-07-12 09:43:00,55.0,-99.9,30.05,NE,49,5.0,6.0,-999,-99.99,,,-99.99,,2013-07-12 16:43:00,
2013-07-12 09:59:00,55.0,-99.9,30.05,NE,50,6.0,6.0,-999,-99.99,,,-99.99,,2013-07-12 16:59:00,
2013-07-12 10:07:00,54.0,-99.9,30.05,ENE,71,6.0,6.0,-999,-99.99,,,-99.99,,2013-07-12 17:07:00,
2013-07-12 10:24:00,55.0,-99.9,30.05,NE,47,6.0,7.0,-999,-99.99,,,-99.99,,2013-07-12 17:24:00,
2013-07-12 10:40:00,54.0,-99.9,30.05,ENE,71,4.0,8.0,-999,-99.99,,,-99.99,,2013-07-12 17:40:00,
2013-07-12 10:57:00,55.0,-99.9,30.05,East,96,4.0,5.0,-999,-99.99,,,-99.99,,2013-07-12 17:57:00,
2013-07-12 11:08:00,56.0,-99.9,30.05,ENE,66,4.0,6.0,-999,-99.99,,,-99.99,,2013-07-12 18:08:00,
2013-07-12 11:35:00,55.0,-99.9,30.05,ENE,66,8.0,10.0,-999,-99.99,,,-99.99,,2013-07-12 18:35:00,
2013-07-12 11:52:00,56.0,-99.9,30.06,East,86,8.0,9.0,-999,-99.99,,,-99.99,,2013-07-12 18:52:00,
2013-07-12 11:59:00,57.0,-99.9,30.06,East,99,6.0,9.0,-999,-99.99,,,-99.99,,2013-07-12 18:59:00,
2013-07-12 12:25:00,60.0,-99.9,30.06,ENE,58,3.0,7.0,-999,-99.99,,,-99.99,,2013-07-12 19:25:00,
2013-07-12 13:04:00,64.0,-99.9,30.06,NE,34,9.0,13.0,-999,-99.99,,,-99.99,,2013-07-12 20:04:00,
2013-07-12 13:15:00,63.0,-99.9,30.06,NE,36,10.0,13.0,-999,-99.99,,,-99.99,,2013-07-12 20:15:00,
2013-07-12 14:04:00,59.0,-99.9,30.07,East,97,6.0,8.0,-999,-99.99,,,-99.99,,2013-07-12 21:04:00,
2013-07-12 14:17:00,58.0,-99.9,30.07,East,82,6.0,8.0,-999,-99.99,,,-99.99,,2013-07-12 21:17:00,
2013-07-12 14:26:00,58.0,-99.9,30.07,East,80,5.0,6.0,-999,-99.99,,,-99.99,,2013-07-12 21:26:00,
2013-07-12 14:49:00,59.0,-99.9,30.07,East,80,4.0,7.0,-999,-99.99,,,-99.99,,2013-07-12 21:49:00,
2013-07-12 14:59:00,64.0,-99.9,30.07,NNW,343,4.0,5.0,-999,-99.99,,,-99.99,,2013-07-12 21:59:00,
2013-07-12 15:04:00,66.0,-99.9,30.07,North,1,3.0,5.0,-999,-99.99,,,-99.99,,2013-07-12 22:04:00,
2013-07-12 15:25:00,66.0,-99.9,30.07,North,4,3.0,7.0,-999,-99.99,,,-99.99,,2013-07-12 22:25:00,
2013-07-12 15:47:00,61.0,-99.9,30.07,East,91,5.0,6.0,-999,-99.99,,,-99.99,,2013-07-12 22:47:00,
2013-07-12 15:56:00,61.0,-99.9,30.08,ENE,73,5.0,6.0,-999,-99.99,,,-99.99,,2013-07-12 22:56:00,
2013-07-12 16:06:00,64.0,-99.9,30.07,NE,55,5.0,6.0,-999,-99.99,,,-99.99,,2013-07-12 23:06:00,
2013-07-12 16:37:00,60.0,-99.9,30.08,NE,38,6.0,7.0,-999,-99.99,,,-99.99,,2013-07-12 23:37:00,
2013-07-12 16:58:00,60.0,-99.9,30.08,NE,47,5.0,6.0,-999,-99.99,,,-99.99,,2013-07-12 23:58:00,
2013-07-12 17:08:00,62.0,-99.9,30.07,NNE,28,5.0,6.0,-999,-99.99,,,-99.99,,2013-07-13 00:08:00,
2013-07-12 17:27:00,65.0,-99.9,30.07,NNE,13,5.0,6.0,-999,-99.99,,,-99.99,,2013-07-13 00:27:00,
2013-07-12 17:50:00,64.0,-99.9,30.07,NNW,327,5.0,8.0,-999,-99.99,,,-99.99,,2013-07-13 00:50:00,
2013-07-12 17:56:00,64.0,-99.9,30.07,NNW,327,5.0,8.0,-999,-99.99,,,-99.99,,2013-07-13 00:56:00,
2013-07-12 18:05:00,63.0,-99.9,30.08,NW,321,6.0,9.0,-999,-99.99,,,-99.99,,2013-07-13 01:05:00,
2013-07-12 18:50:00,63.0,-99.9,30.08,West,275,8.0,12.0,-999,-99.99,,,-99.99,,2013-07-13 01:50:00,
2013-07-12 18:58:00,63.0,-99.9,30.08,WSW,256,9.0,12.0,-999,-99.99,,,-99.99,,2013-07-13 01:58:00,
2013-07-12 19:08:00,63.0,-99.9,30.08,West,271,7.0,12.0,-999,-99.99,,,-99.99,,2013-07-13 02:08:00,
2013-07-12 19:15:00,63.0,-99.9,30.08,West,261,7.0,13.0,-999,-99.99,,,-99.99,,2013-07-13 02:15:00,
2013-07-12 19:48:00,62.0,-99.9,30.08,West,276,10.0,16.0,-999,-99.99,,,-99.99,,2013-07-13 02:48:00,
2013-07-12 19:57:00,63.0,-99.9,30.08,West,261,6.0,12.0,-999,-99.99,,,-99.99,,2013-07-13 02:57:00,
2013-07-12 20:06:00,62.0,-99.9,30.08,WSW,251,8.0,13.0,-999,-99.99,,,-99.99,,2013-07-13 03:06:00,
2013-07-12 20:14:00,62.0,-99.9,30.08,WSW,251,8.0,13.0,-999,-99.99,,,-99.99,,2013-07-13 03:14:00,
2013-07-12 20:47:00,60.0,-99.9,30.09,West,271,11.0,15.0,-999,-99.99,,,-99.99,,2013-07-13 03:47:00,
2013-07-12 21:02:00,60.0,-99.9,30.09,West,259,11.0,14.0,-999,-99.99,,,-99.99,,2013-07-13 04:02:00,
2013-07-12 21:32:00,60.0,-99.9,30.09,West,268,9.0,12.0,-999,-99.99,,,-99.99,,2013-07-13 04:32:00,
2013-07-12 21:44:00,60.0,-99.9,30.10,WSW,256,11.0,15.0,-999,-99.99,,,-99.99,,2013-07-13 04:44:00,
2013-07-12 22:01:00,59.0,-99.9,30.10,WSW,254,8.0,13.0,-999,-99.99,,,-99.99,,2013-07-13 05:01:00,
2013-07-12 22:22:00,59.0,-99.9,30.11,West,261,9.0,14.0,-999,-99.99,,,-99.99,,2013-07-13 05:22:00,
2013-07-12 22:42:00,58.0,-99.9,30.11,West,265,10.0,14.0,-999,-99.99,,,-99.99,,2013-07-13 05:42:00,
2013-07-12 22:52:00,58.0,-99.9,30.11,West,259,9.0,16.0,-999,-99.99,,,-99.99,,2013-07-13 05:52:00,
2013-07-12 23:02:00,57.0,-99.9,30.11,WSW,253,8.0,13.0,-999,-99.99,,,-99.99,,2013-07-13 06:02:00,
2013-07-12 23:22:00,57.0,-99.9,30.12,West,259,9.0,13.0,-999,-99.99,,,-99.99,,2013-07-13 06:22:00,
2013-07-12 23:43:00,56.0,-99.9,30.12,West,272,10.0,16.0,-999,-99.99,,,-99.99,,2013-07-13 06:43:00,
2013-07-12 23:52:00,56.0,-99.9,30.12,West,274,9.0,15.0,-999,-99.99,,,-99.99,,2013-07-13 06:52:00,